aviador You're here:

LFTH Decoded Metar

HYERES in FRANCE
Report Time2017-08-23 04:00:00
UTC Time2017-08-23 04:19:01
Flight Rules vfr VFR
WindVRB at 01 kt
Visibility9999 m
Phenomena:N/A
Clouds:N/A
Expected CloudBase > 2,000 ft AGL from Temp-Dew spread
CeilingNone
Temp14°C (ISA -1)
Dew Point09°C (72% RH)
AAT13.4°C
QNH1016 hPa
Density Alt-49 ft
Elevation13 ft
Report Wrong Elevation
Raw Report
LFTH 230400Z AUTO VRB01KT CAVOK 14/09 Q1016 NOSIG=

Extra information for LFTH:More info

Metar Taf Metar & Taf Last 4 Metars F.Rules Stats Wind Profile Meteogram Temp Stats Airport Information Weather charts Add Link Nearby VenuesMetar ALERT Operation Metar Decoded Social comments